Time;durP1;ratioP1;P1;durP2;ratioP2;P2;SDS_P1;SDS_P2;PMS_P1;PMS_P2;Temp;Humidity;BMP_temperature;BMP_pressure;BME280_temperature;BME280_humidity;BME280_pressure;Samples;Min_cycle;Max_cycle;Signal;HPM_P1;HPM_P2
2022/03/10 00:01:36;;;;;;;191.17;78.03;;;;;;;2.11;77.83;102087.95;5140414;56;1140958;-69
2022/03/10 00:06:42;;;;;;;208.23;85.57;;;;;;;2.13;77.55;102097.92;5140578;56;1140847;-68
2022/03/10 00:11:48;;;;;;;305.87;112.63;;;;;;;2.08;77.43;102103.66;5140540;56;1140892;-69
2022/03/10 00:16:54;;;;;;;262.23;97.43;;;;;;;2.12;78.05;102094.89;5140389;56;1142738;-68
2022/03/10 00:22:01;;;;;;;224.63;85.57;;;;;;;2.15;78.15;102100.03;5140429;56;1141212;-69
2022/03/10 00:27:07;;;;;;;163.67;64.67;;;;;;;2.18;78.64;102106.95;5140477;56;1140720;-68
2022/03/10 00:32:12;;;;;;;156.37;56.73;;;;;;;2.26;79.16;102105.95;5140586;56;1140967;-68
2022/03/10 00:37:18;;;;;;;153.90;57.98;;;;;;;2.15;78.99;102117.00;5112925;56;1140805;-68
2022/03/10 00:42:24;;;;;;;145.97;59.88;;;;;;;2.23;80.02;102124.27;5025050;56;1141021;-69
2022/03/10 00:47:30;;;;;;;162.93;62.97;;;;;;;2.34;80.53;102121.45;5037008;57;1140859;-68
2022/03/10 00:52:45;;;;;;;163.62;62.35;;;;;;;2.43;80.81;102124.78;5040136;57;1140742;-68
2022/03/10 00:57:52;;;;;;;165.47;61.90;;;;;;;2.47;80.66;102126.42;5042024;57;1140680;-69
2022/03/10 01:02:58;;;;;;;177.60;65.52;;;;;;;2.48;80.72;102129.45;5033707;56;1140889;-68
2022/03/10 01:08:05;;;;;;;164.93;64.93;;;;;;;2.41;80.70;102134.83;5073732;56;1140814;-68
2022/03/10 01:13:16;;;;;;;154.37;61.70;;;;;;;2.39;80.76;102142.69;5054422;56;1140878;-69
2022/03/10 01:18:22;;;;;;;159.55;62.30;;;;;;;2.32;81.00;102136.28;5033345;57;1140813;-69
2022/03/10 01:23:27;;;;;;;145.80;55.83;;;;;;;2.13;81.35;102141.43;5041833;57;1140850;-68
2022/03/10 01:28:33;;;;;;;125.40;53.10;;;;;;;1.93;82.00;102149.13;5043081;57;1140947;-69
2022/03/10 01:33:39;;;;;;;137.33;56.33;;;;;;;1.90;82.58;102148.31;5056355;56;1140890;-69
2022/03/10 01:38:45;;;;;;;142.27;58.37;;;;;;;1.90;82.85;102164.83;5202526;55;1140849;-69
2022/03/10 01:44:05;;;;;;;103.93;42.60;;;;;;;2.00;83.45;102166.84;5044181;57;1140776;-68
2022/03/10 01:49:12;;;;;;;113.95;47.10;;;;;;;2.06;83.85;102168.05;5158211;55;1140999;-68
2022/03/10 01:54:18;;;;;;;115.03;48.10;;;;;;;2.15;83.95;102181.39;5112341;55;1148612;-69
2022/03/10 01:59:24;;;;;;;40.10;18.70;;;;;;;2.19;84.05;102177.41;5077159;56;1140799;-69
2022/03/10 02:04:29;;;;;;;54.70;24.07;;;;;;;2.19;85.91;102180.02;5082595;56;1138970;-69
2022/03/10 02:20:38;;;;;;;28.00;14.90;;;;;;;2.44;87.92;102187.84;5099856;56;1138690;-69
2022/03/10 02:25:45;;;;;;;36.90;16.70;;;;;;;2.58;89.29;102201.12;5100221;56;1138903;-69
2022/03/10 02:30:51;;;;;;;32.47;15.53;;;;;;;2.69;89.12;102197.42;5105948;55;1138742;-68
2022/03/10 02:35:58;;;;;;;27.23;15.60;;;;;;;2.78;89.49;102197.69;5069779;56;1138726;-69
2022/03/10 02:41:04;;;;;;;25.17;13.60;;;;;;;2.89;90.43;102205.34;5077647;55;1138661;-68
2022/03/10 02:46:11;;;;;;;22.70;14.20;;;;;;;3.01;90.06;102214.26;5056368;55;1138887;-69
2022/03/10 02:51:17;;;;;;;22.30;13.73;;;;;;;3.10;89.89;102212.31;5082918;56;1140882;-69
2022/03/10 02:56:23;;;;;;;28.90;15.43;;;;;;;3.16;90.16;102217.88;5033912;56;1139001;-69
2022/03/10 03:01:29;;;;;;;23.55;14.70;;;;;;;3.16;90.42;102230.95;5033910;56;1138598;-69
2022/03/10 03:06:35;;;;;;;26.20;14.60;;;;;;;3.12;91.11;102244.52;5033487;56;1138523;-69
2022/03/10 03:11:41;;;;;;;25.40;16.17;;;;;;;3.11;92.40;102243.23;5033718;57;1138661;-69
2022/03/10 03:16:47;;;;;;;27.77;17.00;;;;;;;3.09;93.50;102247.63;5049592;56;1138883;-68
2022/03/10 03:21:54;;;;;;;26.47;16.80;;;;;;;3.09;92.72;102256.78;5032740;56;1138729;-69
2022/03/10 03:27:01;;;;;;;26.80;14.57;;;;;;;3.00;93.48;102266.97;5033892;55;1138822;-69
2022/03/10 03:32:07;;;;;;;25.47;13.37;;;;;;;2.95;92.38;102260.95;5033494;56;1138642;-69
2022/03/10 03:37:14;;;;;;;29.50;14.83;;;;;;;2.90;92.14;102268.48;5047119;56;1138635;-70
2022/03/10 03:42:20;;;;;;;25.12;15.48;;;;;;;2.78;92.07;102274.77;5051261;56;1138822;-69
2022/03/10 03:47:26;;;;;;;21.70;14.10;;;;;;;2.68;91.67;102290.19;5081480;56;1138627;-69
2022/03/10 03:52:32;;;;;;;28.40;16.50;;;;;;;2.60;90.73;102290.30;5085047;56;1138761;-69
2022/03/10 03:57:38;;;;;;;24.30;15.53;;;;;;;2.53;90.33;102291.74;5068362;56;1138587;-69
2022/03/10 04:02:44;;;;;;;22.57;13.20;;;;;;;2.39;90.31;102294.13;5119346;56;1138752;-69
2022/03/10 04:07:49;;;;;;;26.43;14.87;;;;;;;2.34;90.00;102306.39;5084792;56;1138809;-69
2022/03/10 04:12:55;;;;;;;23.77;13.27;;;;;;;2.27;89.82;102309.98;5118942;56;1138582;-69
2022/03/10 04:18:02;;;;;;;18.90;12.60;;;;;;;2.19;89.62;102318.36;5088792;56;1139003;-68
2022/03/10 04:23:07;;;;;;;21.73;13.13;;;;;;;2.07;89.69;102328.97;5026300;57;1138579;-68
2022/03/10 04:28:13;;;;;;;22.97;12.47;;;;;;;2.01;89.75;102339.04;5030419;57;1138514;-69
2022/03/10 04:33:19;;;;;;;22.82;12.33;;;;;;;1.99;89.64;102351.68;5030811;57;1146825;-68
2022/03/10 04:38:25;;;;;;;15.73;9.43;;;;;;;1.93;90.20;102352.64;5030882;57;1138605;-69
2022/03/10 04:43:31;;;;;;;18.33;10.00;;;;;;;1.94;89.62;102360.03;4966005;57;1160162;-70
2022/03/10 04:48:36;;;;;;;21.40;12.30;;;;;;;1.88;89.79;102363.56;5194683;55;1139010;-68
2022/03/10 04:53:42;;;;;;;21.63;12.67;;;;;;;1.83;89.46;102364.08;5228446;55;1138932;-68
2022/03/10 04:58:48;;;;;;;22.80;10.10;;;;;;;1.79;89.39;102374.56;5228446;55;1138712;-69
2022/03/10 05:03:54;;;;;;;23.27;12.43;;;;;;;1.71;89.39;102388.98;5228414;55;1138758;-68
2022/03/10 05:09:00;;;;;;;21.17;9.93;;;;;;;1.65;89.44;102401.67;5228325;55;1138846;-68
2022/03/10 05:14:05;;;;;;;27.47;10.13;;;;;;;1.58;89.33;102416.94;5043856;57;1136654;-68
2022/03/10 05:19:11;;;;;;;27.37;10.00;;;;;;;1.55;89.15;102426.53;5228018;55;1138717;-68
2022/03/10 05:24:17;;;;;;;22.93;11.37;;;;;;;1.52;89.07;102439.63;5208296;55;1138776;-69
2022/03/10 05:29:23;;;;;;;19.03;9.20;;;;;;;1.48;88.42;102445.73;5228475;55;1138778;-68
2022/03/10 05:34:29;;;;;;;34.33;12.75;;;;;;;1.45;88.10;102450.97;5043806;57;1136668;-68
2022/03/10 05:39:35;;;;;;;48.57;20.60;;;;;;;1.41;87.74;102447.08;5228303;55;1138849;-68
2022/03/10 05:44:41;;;;;;;45.47;13.87;;;;;;;1.35;87.39;102460.19;5213665;55;1138725;-68
2022/03/10 05:49:49;;;;;;;23.33;10.63;;;;;;;1.24;87.23;102461.13;5102952;56;1138760;-69
2022/03/10 05:54:54;;;;;;;30.67;11.60;;;;;;;1.25;87.36;102461.56;4969020;57;1138692;-69
2022/03/10 06:00:00;;;;;;;22.20;10.90;;;;;;;1.31;87.44;102473.25;4957978;57;1138730;-68
2022/03/10 06:05:07;;;;;;;44.83;17.13;;;;;;;1.41;87.54;102492.70;4868497;59;1138720;-68
2022/03/10 06:10:13;;;;;;;83.50;26.37;;;;;;;1.53;87.30;102496.11;4881889;59;1138735;-69
2022/03/10 06:15:18;;;;;;;21.17;9.77;;;;;;;1.63;87.06;102502.97;4923462;57;1138693;-68
2022/03/10 06:20:25;;;;;;;18.77;8.17;;;;;;;1.71;86.72;102505.91;4992339;57;1136575;-69
2022/03/10 06:25:31;;;;;;;24.47;11.25;;;;;;;1.85;86.77;102520.12;4971489;56;1136639;-69
2022/03/10 06:30:37;;;;;;;51.00;20.17;;;;;;;2.00;86.55;102526.94;4971110;57;1138945;-68
2022/03/10 06:35:43;;;;;;;44.33;13.40;;;;;;;2.25;85.68;102532.34;4942163;57;1138687;-68
2022/03/10 06:40:48;;;;;;;51.68;19.17;;;;;;;2.25;85.68;102532.34;4886653;58;1139053;-69
2022/03/10 06:45:54;;;;;;;27.67;11.77;;;;;;;2.40;85.90;102540.45;4894931;57;1138822;-68
2022/03/10 06:51:00;;;;;;;26.97;14.10;;;;;;;2.52;84.52;102555.10;4910603;58;1138714;-68
2022/03/10 06:56:06;;;;;;;23.33;10.43;;;;;;;2.59;83.99;102554.16;4902949;57;1138683;-68
2022/03/10 07:01:11;;;;;;;18.37;10.30;;;;;;;2.69;83.32;102562.30;4981206;57;1138918;-68
2022/03/10 07:06:18;;;;;;;25.33;9.83;;;;;;;2.67;81.99;102565.37;4983188;57;1138854;-70
2022/03/10 07:11:25;;;;;;;18.62;10.53;;;;;;;2.78;82.27;102571.31;4903035;58;1136686;-68
2022/03/10 07:16:31;;;;;;;23.30;9.57;;;;;;;2.82;82.24;102584.34;4915885;57;1138648;-68
2022/03/10 07:21:38;;;;;;;24.03;10.00;;;;;;;2.92;81.19;102580.28;4980226;57;1136665;-68
2022/03/10 07:26:44;;;;;;;16.40;8.60;;;;;;;3.04;81.68;102595.39;4979832;57;1138652;-68
2022/03/10 07:31:50;;;;;;;18.07;9.60;;;;;;;3.20;79.19;102589.52;4980006;57;1136571;-68
2022/03/10 07:36:56;;;;;;;13.10;9.13;;;;;;;3.26;78.43;102592.46;4955787;57;1136637;-68
2022/03/10 07:42:02;;;;;;;21.83;10.50;;;;;;;3.32;77.54;102584.54;4914594;57;1136653;-69
2022/03/10 07:47:08;;;;;;;35.43;18.87;;;;;;;3.47;77.54;102589.11;4952669;56;1138947;-69
2022/03/10 07:52:15;;;;;;;28.00;14.40;;;;;;;3.55;76.44;102587.66;4937993;57;1138766;-68
2022/03/10 07:57:21;;;;;;;19.23;9.63;;;;;;;3.63;75.65;102592.35;4982208;57;1138729;-68
2022/03/10 08:02:27;;;;;;;20.45;9.65;;;;;;;3.82;75.59;102601.61;4948251;56;1136798;-69
2022/03/10 08:07:36;;;;;;;15.35;7.87;;;;;;;3.82;72.38;102605.53;5052958;57;1136543;-68
2022/03/10 08:12:41;;;;;;;13.57;7.80;;;;;;;3.85;71.42;102610.73;5052907;57;1136699;-69
2022/03/10 08:17:47;;;;;;;14.80;7.60;;;;;;;4.04;71.48;102608.67;5052766;57;1136605;-68
2022/03/10 08:22:52;;;;;;;27.00;9.47;;;;;;;4.19;69.34;102611.47;5052689;56;1136506;-69
2022/03/10 08:27:58;;;;;;;26.63;10.33;;;;;;;4.11;69.75;102610.31;5037393;57;1136553;-69
2022/03/10 08:33:04;;;;;;;19.77;9.17;;;;;;;4.29;69.00;102613.02;4944427;58;1138695;-69
2022/03/10 08:38:11;;;;;;;18.87;8.30;;;;;;;4.43;68.63;102615.42;4912981;57;1136637;-68
2022/03/10 08:43:16;;;;;;;21.53;9.13;;;;;;;4.62;67.57;102613.28;5121586;56;1136861;-68
2022/03/10 08:48:22;;;;;;;17.47;9.47;;;;;;;4.69;65.63;102611.84;5096280;55;1136779;-69
2022/03/10 08:53:28;;;;;;;14.35;6.20;;;;;;;4.72;65.58;102617.48;5142685;55;1136726;-69
2022/03/10 08:58:34;;;;;;;31.10;8.08;;;;;;;4.71;62.71;102613.99;5098343;56;1136487;-69
2022/03/10 09:03:40;;;;;;;15.27;7.50;;;;;;;4.76;62.67;102621.73;5137037;55;1136687;-68
2022/03/10 09:08:45;;;;;;;13.33;7.10;;;;;;;4.87;61.09;102621.97;5154582;55;1136615;-69
2022/03/10 09:13:52;;;;;;;12.83;6.67;;;;;;;4.92;59.81;102633.65;5217075;55;1136511;-69
2022/03/10 09:19:00;;;;;;;10.80;5.40;;;;;;;4.92;61.54;102632.34;5216631;55;1136645;-69
2022/03/10 09:24:05;;;;;;;14.93;7.17;;;;;;;4.98;59.54;102623.49;5216910;55;1136588;-69
2022/03/10 09:29:11;;;;;;;13.57;5.87;;;;;;;5.02;58.55;102630.41;5216616;55;1136619;-69
2022/03/10 09:34:17;;;;;;;15.23;6.97;;;;;;;5.14;60.20;102627.08;5188866;55;1136782;-68
2022/03/10 09:39:23;;;;;;;16.83;6.43;;;;;;;5.25;55.59;102624.21;5174072;55;1136702;-69
2022/03/10 09:44:32;;;;;;;10.48;5.97;;;;;;;5.14;57.47;102623.14;5178191;55;1136664;-70
2022/03/10 09:49:39;;;;;;;11.40;5.53;;;;;;;5.17;54.05;102625.70;5181249;55;1136516;-69
2022/03/10 09:54:45;;;;;;;12.73;6.17;;;;;;;5.32;57.93;102624.50;5194115;55;1136660;-69
2022/03/10 09:59:59;;;;;;;10.93;6.60;;;;;;;5.55;57.31;102626.59;5174412;55;1136644;-69
2022/03/10 10:05:24;;;;;;;13.00;8.10;;;;;;;5.61;56.69;102624.70;5063500;56;1136604;-69
2022/03/10 10:10:31;;;;;;;11.30;6.85;;;;;;;5.66;56.00;102631.14;5143472;55;1136788;-70
2022/03/10 10:15:40;;;;;;;12.28;7.50;;;;;;;5.71;58.16;102631.91;5200523;55;1136698;-70
2022/03/10 10:20:51;;;;;;;12.83;7.90;;;;;;;5.74;55.64;102633.15;5217435;55;1136593;-70
2022/03/10 10:26:09;;;;;;;12.70;7.30;;;;;;;5.83;58.16;102631.60;5217377;55;1137013;-69
2022/03/10 10:31:21;;;;;;;14.93;7.03;;;;;;;6.07;59.15;102626.70;5176756;55;1136778;-69
2022/03/10 10:36:30;;;;;;;12.23;7.50;;;;;;;6.32;56.61;102625.15;5126237;56;1136709;-69
2022/03/10 10:41:37;;;;;;;18.03;8.87;;;;;;;6.43;55.73;102629.66;5130176;56;1136666;-69
2022/03/10 10:46:46;;;;;;;12.97;7.50;;;;;;;6.48;54.85;102634.36;5078174;56;1136740;-69
2022/03/10 10:51:58;;;;;;;15.30;6.63;;;;;;;6.46;52.73;102628.27;5094470;56;1136854;-70
2022/03/10 10:57:06;;;;;;;11.50;6.77;;;;;;;6.39;55.26;102626.73;5040643;57;1136703;-71
2022/03/10 11:02:20;;;;;;;15.23;6.90;;;;;;;6.44;51.40;102634.02;4951719;58;1136640;-70
2022/03/10 11:07:25;;;;;;;12.93;6.87;;;;;;;6.46;53.70;102626.09;4971184;57;1136785;-71
2022/03/10 11:12:33;;;;;;;12.90;7.95;;;;;;;6.42;54.00;102628.39;5045806;56;1136773;-70
2022/03/10 11:17:38;;;;;;;11.48;7.00;;;;;;;6.45;51.69;102638.83;5044324;56;1136745;-70
2022/03/10 11:23:13;;;;;;;15.73;6.97;;;;;;;6.29;51.00;102633.11;5039852;57;1136654;-70
2022/03/10 11:28:33;;;;;;;13.73;6.23;;;;;;;6.36;50.11;102630.75;5104851;56;1136642;-70
2022/03/10 11:33:39;;;;;;;15.53;6.77;;;;;;;6.38;50.25;102628.95;5108468;56;1136773;-70
2022/03/10 11:39:06;;;;;;;12.70;6.00;;;;;;;6.37;49.26;102632.92;5066810;56;1136651;-70
2022/03/10 11:44:12;;;;;;;14.60;4.73;;;;;;;6.50;51.14;102633.00;5022110;56;1136689;-70
2022/03/10 11:49:18;;;;;;;7.30;5.23;;;;;;;6.64;49.11;102636.13;5130610;55;1136443;-71
2022/03/10 11:54:34;;;;;;;10.53;6.77;;;;;;;6.71;48.48;102636.37;5130850;56;1141190;-70
2022/03/10 11:59:46;;;;;;;11.03;6.25;;;;;;;6.69;46.30;102635.09;5049866;56;1136722;-70
2022/03/10 12:05:00;;;;;;;11.70;6.10;;;;;;;6.77;46.83;102624.35;5072410;56;1136549;-71
2022/03/10 12:10:09;;;;;;;14.13;6.12;;;;;;;6.95;45.08;102622.97;4961684;57;1136736;-71
2022/03/10 12:15:39;;;;;;;13.08;6.28;;;;;;;7.09;46.37;102627.38;5138992;56;1136608;-72
2022/03/10 12:20:46;;;;;;;13.63;5.77;;;;;;;7.21;43.32;102609.90;5138486;56;1136574;-71
2022/03/10 12:26:09;;;;;;;14.70;5.73;;;;;;;7.23;43.36;102615.12;5138666;56;1136608;-71
2022/03/10 12:31:19;;;;;;;21.90;14.63;;;;;;;7.15;42.05;102607.92;5138599;56;1136854;-71
2022/03/10 12:36:41;;;;;;;144.17;107.03;;;;;;;7.14;41.49;102601.80;5138369;56;1139518;-71
2022/03/10 12:42:01;;;;;;;14.90;9.87;;;;;;;7.11;41.50;102595.30;5137721;56;1143081;-72
2022/03/10 12:47:07;;;;;;;17.47;6.97;;;;;;;7.15;42.72;102595.63;5119238;56;1136655;-71
2022/03/10 12:52:17;;;;;;;11.08;5.70;;;;;;;7.29;41.77;102591.26;5087714;56;1136699;-71
2022/03/10 12:57:22;;;;;;;13.60;6.97;;;;;;;7.41;41.85;102594.37;5042246;57;1137057;-71
2022/03/10 13:02:29;;;;;;;17.57;6.60;;;;;;;7.31;38.33;102599.97;4889785;58;1136735;-71
2022/03/10 13:07:36;;;;;;;15.75;7.33;;;;;;;7.26;39.73;102597.47;4818735;58;1136836;-70
2022/03/10 13:12:47;;;;;;;8.53;5.30;;;;;;;7.28;38.58;102592.16;4837571;57;1136684;-70
2022/03/10 13:17:56;;;;;;;17.80;8.33;;;;;;;7.17;36.15;102590.32;4862723;57;1134907;-70
2022/03/10 13:23:09;;;;;;;10.30;6.80;;;;;;;7.21;37.19;102594.56;4890596;58;1136779;-71
2022/03/10 13:28:16;;;;;;;13.83;5.73;;;;;;;7.27;36.83;102591.75;5020356;57;1136581;-70
2022/03/10 13:33:25;;;;;;;15.43;6.37;;;;;;;7.27;36.28;102582.55;4977501;57;1136696;-70
2022/03/10 13:38:33;;;;;;;13.55;7.65;;;;;;;7.15;35.51;102585.10;4938448;58;1136970;-71
2022/03/10 13:43:40;;;;;;;14.00;6.45;;;;;;;7.13;35.77;102587.37;5029674;57;1136587;-71
2022/03/10 13:48:49;;;;;;;74.07;59.43;;;;;;;7.15;35.87;102579.84;5025739;57;1136559;-70
2022/03/10 13:54:00;;;;;;;21.90;10.90;;;;;;;7.08;36.58;102576.11;5055353;56;1138730;-70
2022/03/10 13:59:09;;;;;;;14.87;7.50;;;;;;;7.09;36.75;102582.64;5061198;56;1138867;-71
2022/03/10 14:04:18;;;;;;;21.53;9.00;;;;;;;7.07;35.42;102576.56;5041617;57;1136667;-71
2022/03/10 14:09:26;;;;;;;12.77;5.70;;;;;;;7.00;35.60;102571.09;5166666;55;1136495;-72
2022/03/10 14:14:34;;;;;;;7.78;5.28;;;;;;;6.99;36.98;102577.27;5124405;56;1250373;-71
2022/03/10 14:19:40;;;;;;;30.00;11.00;;;;;;;6.91;34.66;102564.32;5140736;55;1169696;-71
2022/03/10 14:24:57;;;;;;;18.50;7.13;;;;;;;6.91;35.63;102567.41;5121872;55;1138888;-71
2022/03/10 14:30:03;;;;;;;30.10;8.17;;;;;;;6.88;36.23;102570.98;5110115;56;1136500;-71
2022/03/10 14:35:09;;;;;;;17.13;7.73;;;;;;;6.79;35.91;102563.83;5130120;56;1136697;-72
2022/03/10 14:40:15;;;;;;;8.83;5.87;;;;;;;6.71;36.08;102561.44;5023207;57;1136623;-72
2022/03/10 14:45:21;;;;;;;38.40;21.70;;;;;;;6.70;37.03;102563.20;5181252;55;1134641;-72
2022/03/10 14:50:28;;;;;;;88.40;49.03;;;;;;;6.73;37.61;102564.85;5189104;55;1138858;-71
2022/03/10 14:55:34;;;;;;;20.72;12.18;;;;;;;6.76;36.56;102565.22;5120618;56;1138821;-73
2022/03/10 15:00:40;;;;;;;21.15;9.45;;;;;;;6.74;35.22;102564.40;5183223;55;1138818;-72
2022/03/10 15:05:46;;;;;;;22.70;7.93;;;;;;;6.60;35.62;102572.23;5218808;55;1136640;-72
2022/03/10 15:10:52;;;;;;;18.10;9.08;;;;;;;6.60;35.68;102572.23;5218949;55;1136806;-71
2022/03/10 15:15:59;;;;;;;12.70;7.00;;;;;;;6.52;35.79;102579.48;5188212;55;1136685;-71
2022/03/10 15:21:08;;;;;;;25.83;12.33;;;;;;;6.49;36.33;102574.31;5108986;56;1136833;-71
2022/03/10 15:26:16;;;;;;;36.87;14.47;;;;;;;6.44;35.23;102581.45;5228059;55;1138780;-71
2022/03/10 15:31:21;;;;;;;18.37;9.07;;;;;;;6.43;36.43;102581.48;5043476;57;1138878;-71
2022/03/10 15:36:27;;;;;;;14.13;7.57;;;;;;;6.38;37.10;102588.66;5200784;55;1136536;-73
2022/03/10 15:41:34;;;;;;;26.95;7.42;;;;;;;6.33;36.93;102592.27;5137648;55;1136815;-70
2022/03/10 15:46:40;;;;;;;12.53;7.67;;;;;;;6.21;37.61;102587.80;5168634;55;1136595;-72
2022/03/10 15:51:46;;;;;;;28.77;13.73;;;;;;;6.10;38.26;102586.77;5069761;56;1136880;-71
2022/03/10 15:56:53;;;;;;;31.93;11.37;;;;;;;6.01;38.69;102583.05;5034194;57;1138797;-71
2022/03/10 16:01:59;;;;;;;321.63;156.47;;;;;;;6.33;40.01;102589.64;5034746;57;1138926;-69
2022/03/10 16:07:05;;;;;;;71.57;26.30;;;;;;;7.82;38.12;102576.81;5036242;57;1142900;-68
2022/03/10 16:12:11;;;;;;;127.33;69.87;;;;;;;8.59;34.67;102574.12;5111121;56;1138726;-70
2022/03/10 16:17:17;;;;;;;26.07;10.07;;;;;;;9.15;34.90;102576.42;5120701;56;1140885;-71
2022/03/10 16:22:23;;;;;;;24.40;14.37;;;;;;;9.12;34.79;102577.39;5018355;56;1139114;-71
2022/03/10 16:27:31;;;;;;;29.50;14.83;;;;;;;8.13;35.52;102596.80;4958416;57;1139718;-71
2022/03/10 16:32:37;;;;;;;19.42;10.03;;;;;;;7.15;36.77;102594.31;4972713;58;1138752;-70
2022/03/10 16:37:43;;;;;;;32.48;8.95;;;;;;;6.38;37.50;102602.66;4996495;57;1138781;-70
2022/03/10 16:42:49;;;;;;;18.70;8.30;;;;;;;5.81;37.79;102602.34;5026853;57;1136873;-70
2022/03/10 16:47:56;;;;;;;15.37;7.83;;;;;;;5.41;39.12;102613.79;5056118;57;1136694;-68
2022/03/10 16:53:01;;;;;;;15.87;8.83;;;;;;;5.15;39.24;102609.58;5013815;57;1136887;-70
2022/03/10 16:58:07;;;;;;;11.70;7.60;;;;;;;4.92;40.09;102613.53;5047845;57;1136673;-71
2022/03/10 17:03:13;;;;;;;17.83;8.73;;;;;;;4.76;40.28;102614.74;5046079;56;1136690;-71
2022/03/10 17:08:19;;;;;;;33.53;16.90;;;;;;;4.59;40.91;102623.37;4954620;57;1136684;-71
2022/03/10 17:13:25;;;;;;;36.80;17.30;;;;;;;4.48;41.54;102629.27;4966589;57;1138713;-71
2022/03/10 17:18:30;;;;;;;45.23;21.40;;;;;;;4.42;42.12;102634.65;5018794;57;1139804;-72
2022/03/10 17:23:37;;;;;;;78.45;28.92;;;;;;;4.35;42.05;102637.81;5018677;57;1138734;-72
2022/03/10 17:28:43;;;;;;;36.40;16.17;;;;;;;4.26;42.89;102638.43;5019213;57;1138805;-71
2022/03/10 17:33:48;;;;;;;33.57;15.17;;;;;;;4.19;43.26;102640.28;4965978;57;1138779;-71
2022/03/10 17:38:54;;;;;;;31.53;12.87;;;;;;;4.16;43.42;102635.95;5018567;57;1138790;-71
2022/03/10 17:44:00;;;;;;;30.33;11.97;;;;;;;4.07;43.78;102636.56;5043503;57;1138992;-71
2022/03/10 17:49:06;;;;;;;38.88;16.23;;;;;;;4.02;44.27;102629.22;4985431;57;1138785;-71
2022/03/10 17:54:12;;;;;;;75.33;34.37;;;;;;;3.87;44.32;102631.20;5018606;57;1138748;-71
2022/03/10 17:59:18;;;;;;;85.70;36.63;;;;;;;3.78;44.71;102632.67;4933402;57;1138810;-71
2022/03/10 18:04:23;;;;;;;57.13;23.53;;;;;;;3.74;45.24;102634.04;4941802;57;1138834;-71
2022/03/10 18:09:31;;;;;;;40.63;16.00;;;;;;;3.69;45.41;102641.95;5010087;57;1138793;-72
2022/03/10 18:14:36;;;;;;;87.12;17.42;;;;;;;3.61;45.61;102632.50;4948040;58;1138611;-71
2022/03/10 18:19:43;;;;;;;39.40;15.68;;;;;;;3.53;45.66;102645.68;5024315;57;1138624;-71
2022/03/10 18:24:50;;;;;;;28.13;12.47;;;;;;;3.38;45.95;102649.38;4999321;57;1138869;-71
2022/03/10 18:29:56;;;;;;;32.80;14.33;;;;;;;3.31;46.12;102649.05;5018924;57;1138614;-71
2022/03/10 18:35:02;;;;;;;40.70;18.05;;;;;;;3.18;46.36;102654.03;5000002;57;1138655;-70
2022/03/10 18:40:10;;;;;;;36.13;14.65;;;;;;;3.07;46.57;102654.58;5023326;57;1138586;-70
2022/03/10 18:45:17;;;;;;;45.17;15.72;;;;;;;2.93;46.95;102648.22;4999102;57;1138620;-70
2022/03/10 18:50:23;;;;;;;52.80;19.67;;;;;;;2.87;47.23;102656.59;4978701;57;1138584;-72
2022/03/10 18:55:29;;;;;;;57.07;20.70;;;;;;;2.81;47.35;102658.82;4948867;58;1222972;-71
2022/03/10 19:00:35;;;;;;;50.65;20.70;;;;;;;2.77;47.53;102661.91;5065439;56;1138694;-73
2022/03/10 19:05:41;;;;;;;51.37;20.23;;;;;;;2.71;47.51;102657.20;4987761;57;1138609;-70
2022/03/10 19:10:47;;;;;;;39.33;18.13;;;;;;;2.64;47.54;102660.75;4977367;57;1138878;-70
2022/03/10 19:15:53;;;;;;;53.27;20.80;;;;;;;2.59;47.42;102661.26;4974250;58;1138531;-71
2022/03/10 19:20:59;;;;;;;45.03;19.30;;;;;;;2.45;47.48;102666.16;5033960;57;1138832;-68
2022/03/10 19:26:05;;;;;;;41.60;16.37;;;;;;;2.35;47.66;102662.34;5056009;57;1138653;-71
2022/03/10 19:31:11;;;;;;;40.57;15.10;;;;;;;2.20;48.29;102665.09;5007213;57;1138732;-69
2022/03/10 19:36:18;;;;;;;48.13;17.00;;;;;;;2.07;48.47;102667.81;4985552;57;1138833;-71
2022/03/10 19:41:24;;;;;;;48.43;17.77;;;;;;;2.00;48.99;102677.00;4974576;57;1138785;-72
2022/03/10 19:46:30;;;;;;;54.33;18.93;;;;;;;1.94;49.30;102683.58;5113219;56;1138826;-68
2022/03/10 19:51:36;;;;;;;43.08;16.87;;;;;;;1.87;49.71;102689.27;5127524;56;1138929;-71
2022/03/10 19:56:41;;;;;;;46.17;15.93;;;;;;;1.78;50.03;102682.83;5049149;57;1138822;-72
2022/03/10 20:01:48;;;;;;;29.43;13.00;;;;;;;1.69;50.15;102682.42;4977836;57;1138763;-69
2022/03/10 20:06:53;;;;;;;26.97;10.80;;;;;;;1.53;50.77;102683.39;4982490;57;1138750;-69
2022/03/10 20:11:59;;;;;;;27.47;12.40;;;;;;;1.43;51.27;102685.62;4993360;57;1138976;-72
2022/03/10 20:17:05;;;;;;;34.17;13.80;;;;;;;1.35;51.61;102684.37;5002175;57;1138768;-70
2022/03/10 20:22:12;;;;;;;32.43;12.50;;;;;;;1.28;52.09;102689.17;4951926;57;1138870;-71
2022/03/10 20:27:20;;;;;;;35.50;12.80;;;;;;;1.23;52.11;102693.97;5023136;56;1138813;-70
2022/03/10 20:32:25;;;;;;;34.13;13.30;;;;;;;1.21;52.49;102692.70;5033305;56;1138993;-71
2022/03/10 20:37:31;;;;;;;33.93;14.47;;;;;;;1.15;52.51;102695.76;5029492;57;1138675;-70
2022/03/10 20:42:37;;;;;;;34.57;13.33;;;;;;;1.09;52.85;102695.33;5029076;56;1138748;-70
2022/03/10 20:47:43;;;;;;;45.52;16.65;;;;;;;1.08;52.97;102689.69;5071711;56;1138815;-71
2022/03/10 20:52:49;;;;;;;39.75;15.03;;;;;;;1.08;53.01;102693.59;5105854;56;1138888;-70
2022/03/10 20:57:55;;;;;;;33.17;11.70;;;;;;;1.02;53.10;102691.90;5059648;56;1138636;-70
2022/03/10 21:03:01;;;;;;;36.30;13.57;;;;;;;0.97;53.17;102692.77;5071469;56;1138763;-69
2022/03/10 21:08:07;;;;;;;38.97;14.37;;;;;;;0.86;53.56;102690.21;5024778;57;1138865;-70
2022/03/10 21:13:13;;;;;;;30.72;12.07;;;;;;;0.77;53.67;102685.44;5047798;56;1138963;-70
2022/03/10 21:18:19;;;;;;;27.87;12.03;;;;;;;0.63;54.29;102681.56;5095181;56;1138895;-70
2022/03/10 21:23:24;;;;;;;33.77;12.70;;;;;;;0.57;54.25;102681.59;5007936;56;1138727;-70
2022/03/10 21:28:30;;;;;;;28.53;12.20;;;;;;;0.51;54.46;102672.48;5050040;56;1138831;-70
2022/03/10 21:33:36;;;;;;;31.50;11.87;;;;;;;0.41;54.96;102678.58;5048988;56;1138731;-70
2022/03/10 21:38:41;;;;;;;25.62;11.28;;;;;;;0.33;55.18;102681.17;5052473;56;1139167;-70
2022/03/10 21:43:47;;;;;;;26.67;11.63;;;;;;;0.25;55.21;102684.23;5048880;56;1139025;-71
2022/03/10 21:48:54;;;;;;;38.57;13.77;;;;;;;0.28;55.06;102688.14;5015574;57;1138956;-71
2022/03/10 21:54:00;;;;;;;33.70;12.70;;;;;;;0.27;55.06;102688.58;5046573;56;1138755;-70
2022/03/10 21:59:06;;;;;;;33.17;13.57;;;;;;;0.28;55.08;102688.14;4945971;58;1138775;-70
2022/03/10 22:04:13;;;;;;;32.23;12.83;;;;;;;0.25;54.82;102679.03;4949781;58;1138727;-70
2022/03/10 22:09:19;;;;;;;26.17;10.97;;;;;;;0.23;54.71;102690.73;4949933;58;1138806;-71
2022/03/10 22:14:26;;;;;;;28.60;12.37;;;;;;;0.20;54.77;102686.83;4957093;58;1139026;-71
2022/03/10 22:19:32;;;;;;;25.73;10.77;;;;;;;0.17;54.71;102693.76;4969675;58;1139072;-70
2022/03/10 22:24:38;;;;;;;31.77;12.33;;;;;;;0.14;54.70;102691.18;4974407;58;1142449;-70
2022/03/10 22:29:44;;;;;;;34.65;12.43;;;;;;;0.08;54.64;102701.58;5052080;57;1138697;-70
2022/03/10 22:34:50;;;;;;;22.33;9.93;;;;;;;0.02;54.49;102688.12;5051891;57;1138768;-70
2022/03/10 22:39:55;;;;;;;22.50;10.43;;;;;;;0.03;54.42;102689.86;5051980;57;1136730;-70
2022/03/10 22:45:03;;;;;;;25.57;10.63;;;;;;;0.04;54.18;102681.62;5051707;57;1138705;-70
2022/03/10 22:55:35;;;;;;;25.43;10.20;;;;;;;-0.04;54.07;102673.39;5130191;56;1138729;-71
2022/03/10 23:00:45;;;;;;;26.67;10.00;;;;;;;-0.03;54.04;102689.44;5034838;57;1146445;-70
2022/03/10 23:11:14;;;;;;;22.93;9.50;;;;;;;-0.17;53.95;102682.06;5131809;56;1138728;-71
2022/03/10 23:16:20;;;;;;;25.17;10.57;;;;;;;-0.18;54.20;102685.95;5131089;56;1138801;-71
2022/03/10 23:21:26;;;;;;;25.65;10.20;;;;;;;-0.21;54.19;102701.55;5130469;55;1140847;-71
2022/03/10 23:26:32;;;;;;;26.60;11.43;;;;;;;-0.23;54.36;102705.44;5131294;56;1140654;-72